Time;durP1;ratioP1;P1;durP2;ratioP2;P2;SDS_P1;SDS_P2;PMS_P1;PMS_P2;Temp;Humidity;BMP_temperature;BMP_pressure;BME280_temperature;BME280_humidity;BME280_pressure;Samples;Min_cycle;Max_cycle;Signal;HPM_P1;HPM_P2
2023/12/19 00:01:26;;;;;;;11.87;10.77;;;5.50;70.60;;;;;;6274699;28;20246;-81
2023/12/19 00:04:29;;;;;;;11.10;10.10;;;5.60;70.30;;;;;;6281814;28;20253;-81
2023/12/19 00:07:33;;;;;;;10.30;9.43;;;5.50;70.70;;;;;;6276925;28;20241;-81
2023/12/19 00:10:36;;;;;;;10.90;9.80;;;5.50;70.70;;;;;;6289121;28;20252;-81
2023/12/19 00:13:42;;;;;;;10.70;9.80;;;5.50;70.60;;;;;;6282106;28;20234;-79
2023/12/19 00:16:46;;;;;;;10.50;9.53;;;5.60;69.90;;;;;;6288324;28;20312;-80
2023/12/19 00:19:49;;;;;;;9.53;8.67;;;5.60;69.90;;;;;;6280078;28;20261;-80
2023/12/19 00:22:54;;;;;;;10.07;9.27;;;5.60;69.50;;;;;;6278943;28;20236;-80
2023/12/19 00:25:59;;;;;;;10.10;9.30;;;5.50;69.20;;;;;;6272016;28;20628;-81
2023/12/19 00:29:02;;;;;;;9.70;8.90;;;5.50;69.10;;;;;;6286736;28;20252;-80
2023/12/19 00:32:06;;;;;;;9.83;9.00;;;5.50;69.20;;;;;;6272362;28;20230;-81
2023/12/19 00:35:09;;;;;;;9.93;9.13;;;5.50;69.30;;;;;;6276501;28;20229;-80
2023/12/19 00:38:14;;;;;;;10.20;9.10;;;5.50;68.90;;;;;;6286962;28;20241;-77
2023/12/19 00:41:17;;;;;;;9.63;8.83;;;5.50;68.90;;;;;;6270165;28;20229;-81
2023/12/19 00:44:21;;;;;;;9.90;9.00;;;5.50;68.70;;;;;;6285169;28;20236;-80
2023/12/19 00:47:24;;;;;;;8.73;8.23;;;5.50;69.00;;;;;;6287457;28;20733;-80
2023/12/19 00:50:27;;;;;;;9.23;8.63;;;5.50;68.50;;;;;;6271493;28;20234;-80
2023/12/19 00:53:33;;;;;;;9.03;8.23;;;5.50;68.60;;;;;;6277610;28;20257;-81
2023/12/19 00:56:42;;;;;;;9.17;8.40;;;5.50;68.70;;;;;;6276583;28;20237;-80
2023/12/19 00:59:45;;;;;;;9.10;8.40;;;5.50;68.60;;;;;;6288847;28;20276;-80
2023/12/19 01:02:48;;;;;;;8.10;7.60;;;5.40;68.70;;;;;;6270054;28;20234;-81
2023/12/19 01:05:51;;;;;;;9.53;8.63;;;5.40;69.00;;;;;;6281625;28;20240;-81
2023/12/19 01:08:56;;;;;;;9.33;8.63;;;5.40;68.90;;;;;;6284702;28;20271;-80
2023/12/19 01:12:00;;;;;;;8.97;8.27;;;5.50;68.80;;;;;;6274242;28;20240;-81
2023/12/19 01:15:03;;;;;;;8.77;8.13;;;5.50;69.00;;;;;;6289253;28;20237;-80
2023/12/19 01:18:06;;;;;;;9.37;8.40;;;5.50;68.80;;;;;;6280563;28;20320;-81
2023/12/19 01:21:09;;;;;;;8.70;7.93;;;5.50;68.20;;;;;;6286055;28;20241;-77
2023/12/19 01:24:14;;;;;;;8.47;7.73;;;5.50;68.20;;;;;;6285705;28;20249;-81
2023/12/19 01:27:17;;;;;;;9.63;8.47;;;5.60;68.20;;;;;;6282016;28;20362;-81
2023/12/19 01:30:20;;;;;;;8.60;8.00;;;5.60;68.00;;;;;;6286320;28;20520;-81
2023/12/19 01:33:23;;;;;;;8.13;7.43;;;5.60;67.90;;;;;;6278444;28;20241;-82
2023/12/19 01:36:28;;;;;;;9.07;8.37;;;5.70;67.80;;;;;;6260398;28;20244;-81
2023/12/19 01:39:32;;;;;;;8.83;7.77;;;5.70;67.90;;;;;;6298236;28;20240;-82
2023/12/19 01:42:36;;;;;;;9.43;8.80;;;5.70;68.00;;;;;;6284557;28;20241;-81
2023/12/19 01:45:39;;;;;;;9.00;8.30;;;5.70;68.10;;;;;;6276610;28;20712;-82
2023/12/19 01:48:42;;;;;;;8.33;7.70;;;5.70;68.20;;;;;;6276647;28;20343;-81
2023/12/19 01:51:46;;;;;;;9.50;8.70;;;5.80;68.50;;;;;;6286156;28;20237;-80
2023/12/19 01:54:50;;;;;;;9.57;8.87;;;5.80;68.50;;;;;;6282683;28;20307;-80
2023/12/19 01:57:55;;;;;;;8.57;8.07;;;5.90;68.20;;;;;;6285719;28;20426;-80
2023/12/19 02:00:59;;;;;;;9.20;8.50;;;5.90;68.10;;;;;;6271163;28;20345;-82
2023/12/19 02:04:02;;;;;;;8.83;8.20;;;6.00;68.00;;;;;;6265373;28;20246;-80
2023/12/19 02:07:05;;;;;;;8.10;7.53;;;6.00;67.90;;;;;;6279937;28;20234;-79
2023/12/19 02:10:11;;;;;;;8.03;7.37;;;5.90;68.00;;;;;;6285399;28;20257;-82
2023/12/19 02:13:14;;;;;;;8.90;8.13;;;6.10;67.20;;;;;;6277721;28;20233;-79
2023/12/19 02:16:17;;;;;;;8.57;7.77;;;6.00;67.50;;;;;;6274257;28;20281;-80
2023/12/19 02:19:20;;;;;;;8.67;8.07;;;6.00;67.50;;;;;;6278135;28;20271;-80
2023/12/19 02:22:24;;;;;;;8.73;7.97;;;6.10;67.40;;;;;;6285017;28;20749;-79
2023/12/19 02:25:28;;;;;;;8.87;8.10;;;6.10;67.30;;;;;;6278674;28;20242;-82
2023/12/19 02:28:31;;;;;;;8.17;7.57;;;6.10;67.50;;;;;;6274992;28;20874;-80
2023/12/19 02:31:35;;;;;;;9.40;8.70;;;6.10;67.60;;;;;;6280897;28;20248;-81
2023/12/19 02:34:38;;;;;;;8.43;7.93;;;6.20;67.50;;;;;;6275835;28;20291;-80
2023/12/19 02:37:42;;;;;;;8.60;8.00;;;6.10;67.90;;;;;;6284539;28;20260;-80
2023/12/19 02:40:46;;;;;;;9.20;8.50;;;6.10;68.00;;;;;;6277186;28;20352;-81
2023/12/19 02:43:49;;;;;;;10.20;8.07;;;6.10;67.90;;;;;;6281559;28;20714;-80
2023/12/19 02:46:57;;;;;;;8.30;7.90;;;6.20;67.90;;;;;;6282589;28;20237;-80
2023/12/19 02:50:00;;;;;;;9.27;8.57;;;6.10;68.10;;;;;;6289180;28;20237;-81
2023/12/19 02:53:03;;;;;;;9.20;8.50;;;6.10;68.20;;;;;;6280887;28;20239;-80
2023/12/19 02:56:08;;;;;;;9.27;8.57;;;6.10;68.40;;;;;;6285741;28;20315;-80
2023/12/19 02:59:11;;;;;;;8.07;7.57;;;6.10;68.50;;;;;;6283677;28;20749;-80
2023/12/19 03:02:14;;;;;;;8.90;8.20;;;6.10;68.40;;;;;;6277027;28;20299;-80
2023/12/19 03:05:19;;;;;;;9.63;8.93;;;6.10;68.70;;;;;;6281590;28;20820;-81
2023/12/19 03:08:23;;;;;;;9.07;8.37;;;6.20;68.80;;;;;;6283849;28;20234;-80
2023/12/19 03:11:31;;;;;;;8.87;8.37;;;6.20;68.90;;;;;;6283056;28;20234;-80
2023/12/19 03:14:35;;;;;;;8.57;7.97;;;6.20;69.00;;;;;;6273198;28;20246;-79
2023/12/19 03:17:39;;;;;;;9.13;8.53;;;6.20;69.10;;;;;;6280937;28;20252;-80
2023/12/19 03:20:42;;;;;;;9.67;8.97;;;6.30;69.30;;;;;;6273275;28;20345;-80
2023/12/19 03:23:45;;;;;;;9.40;8.80;;;6.20;69.80;;;;;;6279753;28;20772;-80
2023/12/19 03:26:50;;;;;;;10.23;9.43;;;6.30;69.90;;;;;;6281367;28;20348;-79
2023/12/19 03:29:53;;;;;;;10.80;10.00;;;6.30;70.00;;;;;;6280261;28;20712;-80
2023/12/19 03:32:56;;;;;;;10.20;9.50;;;6.30;70.20;;;;;;6272597;28;20639;-80
2023/12/19 03:35:59;;;;;;;11.53;10.53;;;6.30;70.50;;;;;;6287441;28;20237;-81
2023/12/19 03:39:02;;;;;;;11.13;10.30;;;6.30;71.00;;;;;;6288997;28;20236;-78
2023/12/19 03:42:07;;;;;;;11.03;10.03;;;6.30;71.20;;;;;;6287889;28;20238;-80
2023/12/19 03:45:15;;;;;;;11.83;10.73;;;6.30;71.40;;;;;;6275700;28;20338;-81
2023/12/19 03:48:18;;;;;;;11.50;10.60;;;6.30;71.50;;;;;;6288910;28;20383;-80
2023/12/19 03:51:22;;;;;;;12.17;11.10;;;6.40;71.70;;;;;;6275844;28;20226;-78
2023/12/19 03:54:26;;;;;;;12.07;11.07;;;6.40;71.90;;;;;;6280542;28;20238;-81
2023/12/19 03:57:32;;;;;;;11.83;10.93;;;6.50;71.80;;;;;;6279196;28;20233;-79
2023/12/19 04:00:35;;;;;;;13.13;12.03;;;6.50;71.90;;;;;;6285420;28;20237;-81
2023/12/19 04:03:38;;;;;;;11.97;10.93;;;6.50;72.20;;;;;;6274528;28;20360;-80
2023/12/19 04:06:42;;;;;;;12.03;11.03;;;6.50;72.20;;;;;;6275983;28;20233;-81
2023/12/19 04:09:45;;;;;;;12.43;11.33;;;6.50;72.50;;;;;;6282153;28;20228;-83
2023/12/19 04:12:49;;;;;;;12.37;11.27;;;6.60;72.40;;;;;;6281877;28;20226;-83
2023/12/19 04:15:53;;;;;;;12.50;11.40;;;6.60;72.60;;;;;;6278142;28;20246;-79
2023/12/19 04:18:56;;;;;;;12.40;11.20;;;6.60;72.60;;;;;;6283490;28;20237;-77
2023/12/19 04:21:59;;;;;;;12.13;11.23;;;6.60;72.70;;;;;;6279767;28;20238;-83
2023/12/19 04:25:02;;;;;;;13.03;11.83;;;6.60;72.70;;;;;;6285776;28;20875;-80
2023/12/19 04:28:07;;;;;;;12.47;11.17;;;6.60;72.80;;;;;;6278162;28;20240;-79
2023/12/19 04:31:10;;;;;;;13.23;12.03;;;6.70;72.80;;;;;;6278561;28;20320;-81
2023/12/19 04:34:13;;;;;;;11.87;10.97;;;6.60;73.10;;;;;;6276767;28;20237;-80
2023/12/19 04:37:17;;;;;;;13.17;11.83;;;6.60;73.00;;;;;;6282139;28;20233;-79
2023/12/19 04:40:20;;;;;;;11.80;10.90;;;6.60;73.20;;;;;;6274109;28;20226;-81
2023/12/19 04:43:24;;;;;;;12.67;11.57;;;6.70;73.20;;;;;;6285958;28;20280;-81
2023/12/19 04:46:30;;;;;;;13.07;12.07;;;6.80;73.00;;;;;;6266952;28;20234;-79
2023/12/19 04:49:33;;;;;;;12.93;11.83;;;6.80;72.90;;;;;;6277995;28;20240;-79
2023/12/19 04:52:36;;;;;;;13.53;12.20;;;6.70;73.30;;;;;;6284227;28;20244;-79
2023/12/19 04:55:40;;;;;;;12.87;11.77;;;6.70;73.40;;;;;;6280729;28;20775;-80
2023/12/19 04:58:47;;;;;;;12.90;11.60;;;6.80;73.30;;;;;;6278555;28;20229;-80
2023/12/19 05:01:50;;;;;;;13.20;12.00;;;6.70;73.30;;;;;;6289536;28;20238;-81
2023/12/19 05:04:53;;;;;;;12.77;11.47;;;6.80;73.30;;;;;;6286431;28;20241;-82
2023/12/19 05:07:56;;;;;;;11.80;10.80;;;6.80;73.20;;;;;;6274855;28;20240;-78
2023/12/19 05:10:59;;;;;;;11.93;11.03;;;6.70;73.30;;;;;;6292670;28;20229;-81
2023/12/19 05:14:04;;;;;;;11.67;10.60;;;6.80;73.00;;;;;;6291873;28;22169;-78
2023/12/19 05:17:07;;;;;;;11.90;10.80;;;6.90;72.40;;;;;;6283519;28;20237;-82
2023/12/19 05:20:13;;;;;;;12.33;11.20;;;6.80;72.60;;;;;;6293297;28;20252;-81
2023/12/19 05:23:16;;;;;;;11.53;10.53;;;6.70;72.70;;;;;;6285542;28;20245;-81
2023/12/19 05:26:19;;;;;;;11.43;10.53;;;6.80;72.50;;;;;;6286987;28;20309;-77
2023/12/19 05:29:24;;;;;;;11.67;10.67;;;6.70;72.60;;;;;;6271746;28;20310;-79
2023/12/19 05:32:27;;;;;;;11.30;10.40;;;6.80;72.60;;;;;;6283744;28;20244;-81
2023/12/19 05:35:31;;;;;;;10.43;9.63;;;6.80;72.60;;;;;;6290825;28;20236;-79
2023/12/19 05:38:34;;;;;;;11.17;10.17;;;6.80;72.80;;;;;;6284041;28;20613;-79
2023/12/19 05:41:37;;;;;;;11.03;10.13;;;6.70;72.70;;;;;;6285741;28;20237;-79
2023/12/19 05:44:42;;;;;;;10.90;10.00;;;6.80;72.60;;;;;;6279370;28;20237;-82
2023/12/19 05:47:45;;;;;;;10.13;9.33;;;6.80;72.40;;;;;;6280036;28;20229;-77
2023/12/19 05:50:48;;;;;;;9.97;9.17;;;6.70;71.90;;;;;;6279335;28;20225;-80
2023/12/19 05:53:52;;;;;;;9.33;8.53;;;6.60;71.70;;;;;;6278715;28;20241;-81
2023/12/19 05:56:55;;;;;;;9.57;8.77;;;6.60;71.60;;;;;;6283367;28;20644;-80
2023/12/19 06:00:00;;;;;;;9.13;8.43;;;6.50;71.50;;;;;;6285142;28;20287;-81
2023/12/19 06:03:04;;;;;;;10.00;9.20;;;6.50;71.50;;;;;;6281703;28;20248;-77
2023/12/19 06:06:07;;;;;;;9.00;8.37;;;6.50;71.20;;;;;;6285460;28;20236;-80
2023/12/19 06:09:11;;;;;;;9.20;8.57;;;6.50;71.10;;;;;;6282966;28;20243;-80
2023/12/19 06:12:14;;;;;;;9.77;8.97;;;6.60;70.50;;;;;;6280998;28;20248;-80
2023/12/19 06:15:18;;;;;;;8.90;8.17;;;6.70;69.70;;;;;;6279984;28;20252;-81
2023/12/19 06:18:21;;;;;;;8.63;8.03;;;6.50;70.40;;;;;;6281706;28;20233;-80
2023/12/19 06:21:25;;;;;;;9.87;8.93;;;6.50;70.10;;;;;;6285940;28;20640;-79
2023/12/19 06:24:28;;;;;;;9.40;8.60;;;6.50;69.80;;;;;;6280636;28;20320;-79
2023/12/19 06:27:31;;;;;;;8.57;8.00;;;6.60;69.80;;;;;;6277180;28;20310;-79
2023/12/19 06:30:37;;;;;;;8.50;7.77;;;6.60;69.60;;;;;;6278630;28;20269;-80
2023/12/19 06:33:43;;;;;;;9.17;8.47;;;6.60;69.60;;;;;;6292427;28;20241;-77
2023/12/19 06:36:46;;;;;;;9.97;8.00;;;6.60;69.30;;;;;;6283780;28;20706;-79
2023/12/19 06:39:49;;;;;;;8.17;7.67;;;6.50;69.40;;;;;;6279780;28;20233;-77
2023/12/19 06:42:53;;;;;;;8.83;8.23;;;6.50;69.80;;;;;;6281271;28;20232;-78
2023/12/19 06:45:58;;;;;;;8.83;8.03;;;6.50;70.00;;;;;;6291236;28;20240;-80
2023/12/19 06:49:01;;;;;;;8.43;7.73;;;6.50;70.10;;;;;;6291300;28;20233;-79
2023/12/19 06:52:05;;;;;;;8.73;8.03;;;6.50;69.80;;;;;;6274778;28;20229;-77
2023/12/19 06:55:11;;;;;;;9.33;8.60;;;6.60;69.70;;;;;;6288761;28;20240;-80
2023/12/19 06:58:14;;;;;;;9.77;8.50;;;6.50;70.00;;;;;;6302679;28;20712;-80
2023/12/19 07:01:19;;;;;;;9.17;8.53;;;6.60;70.20;;;;;;6278481;28;20249;-81
2023/12/19 07:04:22;;;;;;;9.57;8.67;;;6.60;70.00;;;;;;6282426;28;20715;-77
2023/12/19 07:07:25;;;;;;;9.83;9.03;;;6.60;70.30;;;;;;6290547;28;20347;-78
2023/12/19 07:10:28;;;;;;;9.10;8.40;;;6.60;70.20;;;;;;6280042;28;20313;-79
2023/12/19 07:13:32;;;;;;;9.70;8.80;;;6.60;70.40;;;;;;6270997;28;20241;-79
2023/12/19 07:16:36;;;;;;;10.23;9.23;;;6.60;70.40;;;;;;6289630;28;20391;-80
2023/12/19 07:19:43;;;;;;;9.57;8.73;;;6.70;70.30;;;;;;6285721;28;20221;-80
2023/12/19 07:22:46;;;;;;;9.83;8.93;;;6.70;70.50;;;;;;6288752;28;20255;-80
2023/12/19 07:25:49;;;;;;;9.93;9.00;;;6.60;70.70;;;;;;6289702;28;20362;-79
2023/12/19 07:28:52;;;;;;;10.83;9.83;;;6.50;71.10;;;;;;6292722;28;20259;-79
2023/12/19 07:31:58;;;;;;;11.30;10.30;;;6.60;71.20;;;;;;6275972;28;20233;-78
2023/12/19 07:35:01;;;;;;;9.47;8.77;;;6.60;71.50;;;;;;6280630;28;20374;-78
2023/12/19 07:38:04;;;;;;;10.40;9.57;;;6.60;71.70;;;;;;6288709;28;20257;-79
2023/12/19 07:41:07;;;;;;;10.37;9.57;;;6.70;71.70;;;;;;6287539;28;20302;-80
2023/12/19 07:44:10;;;;;;;10.27;9.13;;;6.70;72.60;;;;;;6277484;28;20236;-80
2023/12/19 07:47:15;;;;;;;10.83;9.83;;;6.60;73.00;;;;;;6296272;28;20236;-80
2023/12/19 07:50:18;;;;;;;12.10;10.70;;;6.50;74.10;;;;;;6287953;28;20756;-80
2023/12/19 07:53:21;;;;;;;11.13;10.13;;;6.50;74.60;;;;;;6281738;28;20289;-80
2023/12/19 07:56:24;;;;;;;11.40;10.40;;;6.40;75.00;;;;;;6288936;28;20265;-78
2023/12/19 07:59:27;;;;;;;11.27;10.30;;;6.40;75.50;;;;;;6286305;28;20324;-81
2023/12/19 08:02:32;;;;;;;11.57;10.47;;;6.40;76.20;;;;;;6279651;28;20249;-75
2023/12/19 08:05:35;;;;;;;12.50;11.33;;;6.40;76.50;;;;;;6288468;28;20237;-79
2023/12/19 08:08:39;;;;;;;11.87;10.60;;;6.40;77.20;;;;;;6289257;28;20232;-78
2023/12/19 08:11:42;;;;;;;12.17;11.03;;;6.40;77.30;;;;;;6286745;28;20233;-82
2023/12/19 08:14:45;;;;;;;12.27;11.07;;;6.40;77.60;;;;;;6292302;28;20332;-78
2023/12/19 08:17:49;;;;;;;12.03;10.87;;;6.30;78.10;;;;;;6280679;28;20314;-80
2023/12/19 08:20:52;;;;;;;12.73;11.30;;;6.10;78.80;;;;;;6285140;28;20847;-77
2023/12/19 08:23:56;;;;;;;12.50;11.33;;;6.10;79.10;;;;;;6275889;28;20257;-80
2023/12/19 08:26:59;;;;;;;13.50;12.30;;;6.10;79.20;;;;;;6282255;28;20775;-80
2023/12/19 08:30:04;;;;;;;12.93;11.73;;;6.10;79.70;;;;;;6286303;28;20312;-79
2023/12/19 08:33:09;;;;;;;13.27;11.73;;;6.00;79.90;;;;;;6285439;28;20828;-79
2023/12/19 08:36:12;;;;;;;12.57;11.37;;;6.10;79.50;;;;;;6281963;28;20335;-79
2023/12/19 08:39:35;;;;;;;12.07;10.83;;;6.20;79.00;;;;;;6283072;28;20311;-79
2023/12/19 08:42:38;;;;;;;11.40;10.40;;;6.10;78.60;;;;;;6285736;28;20909;-79
2023/12/19 08:45:41;;;;;;;12.40;11.00;;;6.10;77.90;;;;;;6285810;28;20232;-77
2023/12/19 08:48:49;;;;;;;12.13;11.03;;;6.20;77.30;;;;;;6272601;28;20222;-77
2023/12/19 08:51:53;;;;;;;12.17;11.07;;;6.20;77.20;;;;;;6279451;28;20226;-79
2023/12/19 08:54:56;;;;;;;13.43;12.07;;;6.20;77.50;;;;;;6276008;28;20238;-78
2023/12/19 08:58:00;;;;;;;13.17;11.83;;;6.20;77.90;;;;;;6279053;28;20608;-79
2023/12/19 09:01:03;;;;;;;13.00;11.80;;;6.10;78.60;;;;;;6276364;28;20245;-77
2023/12/19 09:04:08;;;;;;;12.93;11.63;;;6.00;79.00;;;;;;6276579;28;20241;-79
2023/12/19 09:07:11;;;;;;;13.50;12.33;;;6.10;78.70;;;;;;6277752;28;20241;-78
2023/12/19 09:10:15;;;;;;;13.20;11.90;;;6.10;78.40;;;;;;6281136;28;20240;-79
2023/12/19 09:13:21;;;;;;;13.40;11.83;;;6.10;77.90;;;;;;6275764;28;20410;-79
2023/12/19 09:16:24;;;;;;;12.47;11.43;;;6.10;77.40;;;;;;6273901;28;20328;-79
2023/12/19 09:19:30;;;;;;;11.73;10.73;;;6.10;77.00;;;;;;6287259;28;20240;-78
2023/12/19 09:22:34;;;;;;;13.33;11.93;;;6.10;76.90;;;;;;6275955;28;20265;-79
2023/12/19 09:25:37;;;;;;;13.50;11.57;;;6.10;76.50;;;;;;6269890;28;20332;-79
2023/12/19 09:28:41;;;;;;;12.93;11.50;;;6.10;76.40;;;;;;6281842;28;20233;-79
2023/12/19 09:31:47;;;;;;;12.77;11.63;;;6.00;76.40;;;;;;6271403;28;20245;-79
2023/12/19 09:34:52;;;;;;;11.63;10.63;;;6.10;76.10;;;;;;6283881;28;20320;-79
2023/12/19 09:38:01;;;;;;;12.60;11.30;;;6.00;76.20;;;;;;6271963;28;20229;-79
2023/12/19 09:41:05;;;;;;;12.53;11.47;;;6.10;75.80;;;;;;6285173;28;20240;-78
2023/12/19 09:44:10;;;;;;;12.57;11.47;;;6.20;76.00;;;;;;6276245;28;20264;-77
2023/12/19 09:47:25;;;;;;;12.67;11.57;;;6.10;76.70;;;;;;6279874;28;20238;-79
2023/12/19 09:50:31;;;;;;;13.13;11.87;;;6.10;76.70;;;;;;6277070;28;20252;-76
2023/12/19 09:53:35;;;;;;;11.77;10.77;;;6.00;77.30;;;;;;6281401;28;20741;-79
2023/12/19 09:56:43;;;;;;;13.20;11.80;;;6.00;77.30;;;;;;6283129;28;20234;-79
2023/12/19 09:59:47;;;;;;;12.97;11.80;;;5.90;77.80;;;;;;6281442;28;20714;-80
2023/12/19 10:03:00;;;;;;;13.47;11.93;;;5.90;78.20;;;;;;6273937;28;20348;-78
2023/12/19 10:06:06;;;;;;;13.00;11.53;;;5.90;78.70;;;;;;6278859;28;20317;-79
2023/12/19 10:09:15;;;;;;;13.90;12.50;;;5.90;79.30;;;;;;6284256;28;20701;-79
2023/12/19 10:12:18;;;;;;;13.63;12.23;;;5.80;79.70;;;;;;6273511;28;20261;-81
2023/12/19 10:15:21;;;;;;;13.63;12.10;;;5.80;80.00;;;;;;6278251;28;20238;-79
2023/12/19 10:18:24;;;;;;;14.57;13.03;;;5.80;80.30;;;;;;6282258;28;20237;-77
2023/12/19 10:21:37;;;;;;;13.80;12.50;;;5.70;80.80;;;;;;6282399;28;20238;-79
2023/12/19 10:24:41;;;;;;;18.53;13.17;;;5.80;80.90;;;;;;6276117;28;20310;-79
2023/12/19 10:27:44;;;;;;;14.50;13.00;;;5.80;80.70;;;;;;6283868;28;20240;-78
2023/12/19 10:30:47;;;;;;;14.83;13.23;;;5.80;80.70;;;;;;6269009;28;20241;-78
2023/12/19 10:33:51;;;;;;;15.60;13.57;;;5.90;80.70;;;;;;6279912;28;20240;-80
2023/12/19 10:37:10;;;;;;;14.37;13.07;;;5.80;81.00;;;;;;6281075;28;20236;-81
2023/12/19 10:40:19;;;;;;;14.50;12.83;;;5.80;81.20;;;;;;6264028;28;20293;-80
2023/12/19 10:43:23;;;;;;;14.53;13.10;;;5.80;81.70;;;;;;6284794;28;20247;-79
2023/12/19 10:46:28;;;;;;;15.70;14.10;;;5.80;81.70;;;;;;6273100;28;20243;-81
2023/12/19 10:49:31;;;;;;;15.67;13.97;;;5.80;81.80;;;;;;6279164;28;20240;-81
2023/12/19 10:52:40;;;;;;;15.13;13.13;;;5.80;82.00;;;;;;6269372;28;20315;-80
2023/12/19 10:55:47;;;;;;;14.80;13.30;;;6.00;81.50;;;;;;6280714;28;20321;-81
2023/12/19 10:58:58;;;;;;;15.17;13.67;;;6.10;81.00;;;;;;6270737;28;20284;-78
2023/12/19 11:02:05;;;;;;;17.27;14.27;;;6.10;81.00;;;;;;6283160;28;20379;-79
2023/12/19 11:05:19;;;;;;;15.03;13.67;;;6.10;81.20;;;;;;6281652;28;20245;-78
2023/12/19 11:08:27;;;;;;;15.07;13.57;;;6.00;80.90;;;;;;6284921;28;20229;-79
2023/12/19 11:11:36;;;;;;;17.50;15.50;;;5.90;81.50;;;;;;6288596;28;20229;-80
2023/12/19 11:14:40;;;;;;;14.93;13.40;;;5.90;81.50;;;;;;6274762;28;20233;-77
2023/12/19 11:17:51;;;;;;;15.00;13.50;;;6.00;81.60;;;;;;6286954;28;20890;-79
2023/12/19 11:21:02;;;;;;;16.47;14.13;;;6.00;81.50;;;;;;6287630;28;20240;-80
2023/12/19 11:24:10;;;;;;;16.00;14.33;;;6.00;81.80;;;;;;6284750;28;20221;-79
2023/12/19 11:27:21;;;;;;;16.30;14.60;;;6.10;81.60;;;;;;6286310;28;20237;-77
2023/12/19 11:30:35;;;;;;;15.87;14.37;;;6.10;81.90;;;;;;6284611;28;20264;-78
2023/12/19 11:33:39;;;;;;;15.87;14.13;;;6.20;81.90;;;;;;6291215;28;20617;-79
2023/12/19 11:36:46;;;;;;;16.90;15.20;;;6.20;81.90;;;;;;6292298;28;20233;-81
2023/12/19 11:39:51;;;;;;;14.97;13.57;;;6.10;82.20;;;;;;6288088;28;20230;-81
2023/12/19 11:42:54;;;;;;;16.10;13.93;;;6.10;82.60;;;;;;6285313;28;20242;-80
2023/12/19 11:45:58;;;;;;;16.87;14.03;;;6.10;82.20;;;;;;6281953;28;20229;-79
2023/12/19 11:49:01;;;;;;;18.20;13.93;;;6.10;82.30;;;;;;6281016;28;20230;-81
2023/12/19 11:52:05;;;;;;;16.93;14.77;;;6.10;82.50;;;;;;6292197;28;20273;-79
2023/12/19 11:55:22;;;;;;;16.20;14.67;;;6.10;82.70;;;;;;6289602;28;20244;-79
2023/12/19 11:58:26;;;;;;;19.80;15.17;;;6.00;83.40;;;;;;6281526;28;20735;-80
2023/12/19 12:01:38;;;;;;;19.23;15.47;;;6.00;83.50;;;;;;6285781;28;20391;-79
2023/12/19 12:04:42;;;;;;;18.20;16.13;;;6.10;83.70;;;;;;6280828;28;20772;-79
2023/12/19 12:07:50;;;;;;;17.87;15.53;;;5.90;84.20;;;;;;6284707;28;20237;-78
2023/12/19 12:11:02;;;;;;;17.13;15.33;;;6.00;84.40;;;;;;6284267;28;20245;-80
2023/12/19 12:14:05;;;;;;;17.53;15.70;;;6.10;84.10;;;;;;6271237;28;20226;-80
2023/12/19 12:17:09;;;;;;;19.33;16.17;;;6.00;84.40;;;;;;6287385;28;20234;-79
2023/12/19 12:20:13;;;;;;;19.43;16.33;;;6.00;84.60;;;;;;6279544;28;20747;-78
2023/12/19 12:23:20;;;;;;;18.83;16.67;;;6.00;84.70;;;;;;6294850;28;20248;-78
2023/12/19 12:26:25;;;;;;;18.43;16.47;;;6.00;85.00;;;;;;6293700;28;20776;-78
2023/12/19 12:29:37;;;;;;;18.70;16.17;;;6.10;84.90;;;;;;6280135;28;20963;-78
2023/12/19 12:32:41;;;;;;;19.47;17.40;;;6.10;84.80;;;;;;6275330;28;20259;-80
2023/12/19 12:35:45;;;;;;;19.37;17.33;;;6.10;85.20;;;;;;6292644;28;20320;-76
2023/12/19 12:38:54;;;;;;;21.73;17.83;;;6.00;85.40;;;;;;6280517;28;20229;-79
2023/12/19 12:42:05;;;;;;;18.73;16.80;;;6.00;85.60;;;;;;6293140;28;20786;-78
2023/12/19 12:45:08;;;;;;;23.10;18.40;;;6.10;85.70;;;;;;6283296;28;20697;-78
2023/12/19 12:48:13;;;;;;;23.50;17.93;;;6.10;85.70;;;;;;6282649;28;20232;-78
2023/12/19 12:51:18;;;;;;;20.80;17.77;;;6.10;85.20;;;;;;6291053;28;20225;-79
2023/12/19 12:54:21;;;;;;;18.57;16.30;;;6.20;85.10;;;;;;6287190;28;20694;-80
2023/12/19 12:57:26;;;;;;;20.37;16.70;;;6.20;84.90;;;;;;6288237;28;20237;-78
2023/12/19 13:00:29;;;;;;;20.40;16.80;;;6.10;85.10;;;;;;6287273;28;20692;-80
2023/12/19 13:03:33;;;;;;;23.07;17.63;;;6.10;85.20;;;;;;6280431;28;20233;-78
2023/12/19 13:06:41;;;;;;;17.90;16.00;;;6.10;85.10;;;;;;6281592;28;20229;-79
2023/12/19 13:09:48;;;;;;;23.13;16.87;;;6.10;84.90;;;;;;6286146;28;20382;-77
2023/12/19 13:12:53;;;;;;;20.33;17.03;;;6.20;84.90;;;;;;6266604;28;20236;-79
2023/12/19 13:15:56;;;;;;;20.40;17.10;;;6.00;85.00;;;;;;6278708;28;20932;-78
2023/12/19 13:18:59;;;;;;;18.63;16.37;;;6.10;85.10;;;;;;6278919;28;20229;-77
2023/12/19 13:22:03;;;;;;;18.97;16.90;;;6.10;85.00;;;;;;6278450;28;20233;-79
2023/12/19 13:25:09;;;;;;;19.07;17.07;;;6.10;85.10;;;;;;6289393;28;20236;-81
2023/12/19 13:28:14;;;;;;;20.10;17.93;;;6.10;84.80;;;;;;6278116;28;20235;-79
2023/12/19 13:31:18;;;;;;;21.40;17.23;;;6.20;84.70;;;;;;6281581;28;20823;-79
2023/12/19 13:34:22;;;;;;;20.93;17.07;;;6.10;85.00;;;;;;6278950;28;20346;-77
2023/12/19 13:37:25;;;;;;;17.97;16.17;;;6.00;85.30;;;;;;6276300;28;20235;-77
2023/12/19 13:40:29;;;;;;;21.47;16.83;;;6.10;85.30;;;;;;6295322;28;20701;-77
2023/12/19 13:43:35;;;;;;;21.83;18.13;;;6.10;85.40;;;;;;6285023;28;20240;-80
2023/12/19 13:46:38;;;;;;;23.53;17.57;;;6.00;85.60;;;;;;6294432;28;20241;-76
2023/12/19 13:49:43;;;;;;;23.33;17.20;;;6.10;85.40;;;;;;6279975;28;20236;-77
2023/12/19 13:52:46;;;;;;;21.97;18.60;;;6.00;85.70;;;;;;6277153;28;20239;-78
2023/12/19 13:55:50;;;;;;;20.50;17.33;;;6.00;85.90;;;;;;6284224;28;20328;-79
2023/12/19 13:58:54;;;;;;;21.70;18.03;;;6.10;85.80;;;;;;6284948;28;20313;-78
2023/12/19 14:01:58;;;;;;;19.67;17.40;;;6.10;85.90;;;;;;6282434;28;20802;-79
2023/12/19 14:05:01;;;;;;;20.93;18.10;;;6.10;86.10;;;;;;6282815;28;20241;-78
2023/12/19 14:08:05;;;;;;;21.03;16.80;;;6.20;85.80;;;;;;6279756;28;20263;-80
2023/12/19 14:11:09;;;;;;;20.53;18.33;;;6.20;85.70;;;;;;6288702;28;20343;-78
2023/12/19 14:14:13;;;;;;;19.23;17.23;;;6.10;85.80;;;;;;6281766;28;20364;-79
2023/12/19 14:17:16;;;;;;;21.40;18.23;;;6.10;85.90;;;;;;6286707;28;20234;-79
2023/12/19 14:20:19;;;;;;;20.00;17.50;;;6.20;85.90;;;;;;6277785;28;20225;-78
2023/12/19 14:23:23;;;;;;;21.13;17.57;;;6.20;85.50;;;;;;6279555;28;20233;-79
2023/12/19 14:26:26;;;;;;;21.00;18.07;;;6.10;85.80;;;;;;6280786;28;20237;-79
2023/12/19 14:29:34;;;;;;;21.40;17.47;;;6.10;85.90;;;;;;6279084;28;20645;-79
2023/12/19 14:32:37;;;;;;;21.23;18.17;;;6.10;86.20;;;;;;6281606;28;20368;-79
2023/12/19 14:35:43;;;;;;;18.77;16.77;;;6.10;85.90;;;;;;6283385;28;20328;-76
2023/12/19 14:38:46;;;;;;;19.80;17.20;;;6.30;85.60;;;;;;6282084;28;20244;-77
2023/12/19 14:41:49;;;;;;;22.13;18.00;;;6.20;85.60;;;;;;6285062;28;20229;-78
2023/12/19 14:44:53;;;;;;;19.23;16.60;;;6.10;86.10;;;;;;6291622;28;20246;-80
2023/12/19 14:47:56;;;;;;;18.97;16.73;;;6.20;86.00;;;;;;6284605;28;20306;-76
2023/12/19 14:51:01;;;;;;;18.87;16.77;;;6.20;85.70;;;;;;6289001;28;20229;-80
2023/12/19 14:54:04;;;;;;;19.77;17.20;;;6.10;86.00;;;;;;6280068;28;20231;-80
2023/12/19 14:57:07;;;;;;;19.87;17.27;;;6.10;86.30;;;;;;6278612;28;20265;-78
2023/12/19 15:00:14;;;;;;;20.27;17.00;;;6.20;86.50;;;;;;6251798;28;20344;-78
2023/12/19 15:03:18;;;;;;;17.97;16.17;;;6.20;86.10;;;;;;6267668;28;21111;-77
2023/12/19 15:06:21;;;;;;;19.13;16.43;;;6.30;86.10;;;;;;6277467;28;20240;-79
2023/12/19 15:09:26;;;;;;;19.67;15.97;;;6.30;85.80;;;;;;6264473;28;20246;-80
2023/12/19 15:12:29;;;;;;;17.40;15.57;;;6.30;85.80;;;;;;6257960;28;20242;-79
2023/12/19 15:15:34;;;;;;;18.40;16.50;;;6.20;86.20;;;;;;6263011;28;20244;-77
2023/12/19 15:18:37;;;;;;;16.00;14.50;;;6.30;86.20;;;;;;6261576;28;20244;-77
2023/12/19 15:21:44;;;;;;;18.40;16.53;;;6.30;86.20;;;;;;6263016;28;20994;-79
2023/12/19 15:24:47;;;;;;;18.47;16.57;;;6.30;86.40;;;;;;6263452;28;20237;-79
2023/12/19 15:27:50;;;;;;;20.50;15.60;;;6.30;86.60;;;;;;6263733;28;20572;-78
2023/12/19 15:30:55;;;;;;;17.03;15.23;;;6.20;86.80;;;;;;6266410;28;21041;-83
2023/12/19 15:33:58;;;;;;;18.20;15.97;;;6.20;86.90;;;;;;6259155;28;20249;-76
2023/12/19 15:37:01;;;;;;;17.57;15.87;;;6.30;86.90;;;;;;6265907;28;20241;-80
2023/12/19 15:40:05;;;;;;;18.07;16.17;;;6.30;86.60;;;;;;6264899;28;20244;-78
2023/12/19 15:43:09;;;;;;;17.93;15.63;;;6.30;86.80;;;;;;6266034;28;20234;-80
2023/12/19 15:46:15;;;;;;;15.83;14.23;;;6.40;86.80;;;;;;6264344;28;20244;-78
2023/12/19 15:49:21;;;;;;;15.90;14.30;;;6.40;86.40;;;;;;6272350;28;20736;-80
2023/12/19 15:52:24;;;;;;;15.20;13.70;;;6.40;86.50;;;;;;6277082;28;20233;-79
2023/12/19 15:55:28;;;;;;;16.60;15.00;;;6.40;86.40;;;;;;6277331;28;20234;-77